createdAt,value
2018-06-25T00:00:09.005Z,15.80
2018-06-25T00:02:37.537Z,15.80
2018-06-25T00:05:06.193Z,15.80
2018-06-25T00:07:34.713Z,15.80
2018-06-25T00:10:03.323Z,15.70
2018-06-25T00:12:31.869Z,15.70
2018-06-25T00:15:00.401Z,15.60
2018-06-25T00:17:28.913Z,15.50
2018-06-25T00:19:57.429Z,15.50
2018-06-25T00:22:25.933Z,15.40
2018-06-25T00:24:54.506Z,15.30
2018-06-25T00:27:23.033Z,15.30
2018-06-25T00:29:51.561Z,15.30
2018-06-25T00:32:20.064Z,15.30
2018-06-25T00:34:48.573Z,15.30
2018-06-25T00:37:17.109Z,15.30
2018-06-25T00:39:45.617Z,15.30
2018-06-25T00:42:14.138Z,15.30
2018-06-25T00:44:42.648Z,15.40
2018-06-25T00:47:11.165Z,15.40
2018-06-25T00:49:39.685Z,15.40
2018-06-25T00:52:08.193Z,15.40
2018-06-25T00:54:36.722Z,15.40
2018-06-25T00:57:05.253Z,15.40
2018-06-25T00:59:45.036Z,15.30
2018-06-25T01:02:13.601Z,15.30
2018-06-25T01:04:42.106Z,15.30
2018-06-25T01:07:10.641Z,15.30
2018-06-25T01:09:39.154Z,15.30
2018-06-25T01:12:07.821Z,15.40
2018-06-25T01:14:36.329Z,15.30
2018-06-25T01:17:05.306Z,15.30
2018-06-25T01:19:33.816Z,15.30
2018-06-25T01:22:02.445Z,15.30
2018-06-25T01:24:31.028Z,15.40
2018-06-25T01:27:00.458Z,15.40
2018-06-25T01:29:28.989Z,15.30
2018-06-25T01:31:57.520Z,15.30
2018-06-25T01:34:26.305Z,15.30
2018-06-25T01:36:54.825Z,15.30
2018-06-25T01:39:23.338Z,15.30
2018-06-25T01:41:51.875Z,15.30
2018-06-25T01:44:20.380Z,15.20
2018-06-25T01:46:48.901Z,15.10
2018-06-25T01:49:17.420Z,15.10
2018-06-25T01:51:45.969Z,15.00
2018-06-25T01:54:14.469Z,14.90
2018-06-25T01:56:43.345Z,14.90
2018-06-25T01:59:11.857Z,14.90
2018-06-25T02:01:40.413Z,14.90
2018-06-25T02:04:08.913Z,14.90
2018-06-25T02:06:37.421Z,14.90
2018-06-25T02:09:08.833Z,14.90
2018-06-25T02:11:37.348Z,14.80
2018-06-25T02:14:05.912Z,14.80
2018-06-25T02:16:34.449Z,14.60
2018-06-25T02:19:02.963Z,14.50
2018-06-25T02:21:31.485Z,14.50
2018-06-25T02:24:00.080Z,14.50
2018-06-25T02:26:28.908Z,14.50
2018-06-25T02:28:57.418Z,14.40
2018-06-25T02:31:26.186Z,14.40
2018-06-25T02:33:54.722Z,14.30
2018-06-25T02:36:23.245Z,14.20
2018-06-25T02:38:51.777Z,14.10
2018-06-25T02:41:20.311Z,14.10
2018-06-25T02:43:48.836Z,13.90
2018-06-25T02:46:17.577Z,13.80
2018-06-25T02:48:46.092Z,13.70
2018-06-25T02:51:14.694Z,13.50
2018-06-25T02:53:43.217Z,13.50
2018-06-25T02:56:11.772Z,13.50
2018-06-25T02:58:40.274Z,13.50
2018-06-25T03:01:08.794Z,13.60
2018-06-25T03:03:37.332Z,13.60
2018-06-25T03:06:05.891Z,13.60
2018-06-25T03:08:34.417Z,13.70
2018-06-25T03:11:03.114Z,13.70
2018-06-25T03:13:31.622Z,13.80
2018-06-25T03:16:00.149Z,13.90
2018-06-25T03:18:28.673Z,13.80
2018-06-25T03:20:57.239Z,13.90
2018-06-25T03:23:25.766Z,13.90
2018-06-25T03:25:54.276Z,14.00
2018-06-25T03:28:22.782Z,14.10
2018-06-25T03:30:51.277Z,14.10
2018-06-25T03:33:19.809Z,14.20
2018-06-25T03:35:48.333Z,14.20
2018-06-25T03:38:16.848Z,14.30
2018-06-25T03:40:45.389Z,14.40
2018-06-25T03:43:13.887Z,14.50
2018-06-25T03:45:42.425Z,14.60
2018-06-25T03:48:10.950Z,14.70
2018-06-25T03:50:39.732Z,14.70
2018-06-25T03:53:08.242Z,14.70
2018-06-25T03:55:36.805Z,14.80
2018-06-25T04:00:33.973Z,14.80
2018-06-25T04:05:30.722Z,14.90
2018-06-25T04:07:59.235Z,14.90
2018-06-25T04:10:27.765Z,15.00
2018-06-25T04:12:56.581Z,15.00
2018-06-25T04:15:25.102Z,15.00
2018-06-25T04:17:53.598Z,14.90
2018-06-25T04:20:22.145Z,14.90
2018-06-25T04:22:50.657Z,15.00
2018-06-25T04:25:19.181Z,15.00
2018-06-25T04:27:47.766Z,15.00
2018-06-25T04:30:16.269Z,15.00
2018-06-25T04:32:44.810Z,15.00
2018-06-25T04:35:13.321Z,15.00
2018-06-25T04:37:41.830Z,15.00
2018-06-25T04:40:10.415Z,15.00
2018-06-25T04:42:38.890Z,15.00
2018-06-25T04:45:07.393Z,15.00
2018-06-25T04:47:35.893Z,15.10
2018-06-25T04:50:04.458Z,15.10
2018-06-25T04:52:32.958Z,15.10
2018-06-25T04:55:01.466Z,15.10
2018-06-25T04:57:29.992Z,15.10
2018-06-25T04:59:58.501Z,15.10
2018-06-25T05:02:27.037Z,15.10
2018-06-25T05:04:55.545Z,15.20
2018-06-25T05:07:24.073Z,15.20
2018-06-25T05:09:52.582Z,15.20
2018-06-25T05:12:21.090Z,15.30
2018-06-25T05:14:49.597Z,15.30
2018-06-25T05:17:18.118Z,15.30
2018-06-25T05:19:46.654Z,15.30
2018-06-25T05:22:15.181Z,15.30
2018-06-25T05:24:43.718Z,15.40
2018-06-25T05:27:12.266Z,15.40
2018-06-25T05:29:40.781Z,15.40
2018-06-25T05:32:09.298Z,15.50
2018-06-25T05:34:37.834Z,15.50
2018-06-25T05:37:06.350Z,15.60
2018-06-25T05:39:34.897Z,15.60
2018-06-25T05:42:03.469Z,15.70
2018-06-25T05:44:31.993Z,15.70
2018-06-25T05:47:00.505Z,15.70
2018-06-25T05:49:29.037Z,15.80
2018-06-25T05:51:57.561Z,15.80
2018-06-25T05:56:54.253Z,16.00
2018-06-25T05:59:22.770Z,16.00
2018-06-25T06:01:51.457Z,16.10
2018-06-25T06:04:19.956Z,16.10
2018-06-25T06:06:48.493Z,16.00
2018-06-25T06:09:17.151Z,16.00
2018-06-25T06:11:45.657Z,15.90
2018-06-25T06:14:14.225Z,16.00
2018-06-25T06:16:42.757Z,16.00
2018-06-25T06:19:11.269Z,15.90
2018-06-25T06:21:39.785Z,16.00
2018-06-25T06:24:08.292Z,16.00
2018-06-25T06:26:36.812Z,16.10
2018-06-25T06:29:05.374Z,16.00
2018-06-25T06:31:34.053Z,16.00
2018-06-25T06:34:02.573Z,16.00
2018-06-25T06:36:31.181Z,15.80
2018-06-25T06:38:59.689Z,15.70
2018-06-25T06:41:28.218Z,15.60
2018-06-25T06:46:24.954Z,15.60
2018-06-25T06:48:53.478Z,15.70
2018-06-25T06:51:22.097Z,15.80
2018-06-25T06:53:50.570Z,15.90
2018-06-25T06:56:19.089Z,16.00
2018-06-25T06:58:47.618Z,16.10
2018-06-25T07:01:16.122Z,16.20
2018-06-25T07:03:44.645Z,16.30
2018-06-25T07:06:13.189Z,16.30
2018-06-25T07:08:41.709Z,16.40
2018-06-25T07:11:10.233Z,16.50
2018-06-25T07:13:38.770Z,16.60
2018-06-25T07:16:07.312Z,16.80
2018-06-25T07:18:35.815Z,17.00
2018-06-25T07:21:04.633Z,17.00
2018-06-25T07:23:33.229Z,17.10
2018-06-25T07:26:01.764Z,17.20
2018-06-25T07:28:30.273Z,17.20
2018-06-25T07:30:58.805Z,17.30
2018-06-25T07:33:27.342Z,17.20
2018-06-25T07:35:55.869Z,17.30
2018-06-25T07:38:24.416Z,17.40
2018-06-25T07:40:52.953Z,17.50
2018-06-25T07:43:21.486Z,17.60
2018-06-25T07:45:50.049Z,17.80
2018-06-25T07:48:18.582Z,17.90
2018-06-25T07:50:47.229Z,18.00
2018-06-25T07:53:15.789Z,18.20
2018-06-25T07:55:44.290Z,18.30
2018-06-25T07:58:12.814Z,18.40
2018-06-25T08:00:41.353Z,18.40
2018-06-25T08:03:09.885Z,18.50
2018-06-25T08:05:38.437Z,18.50
2018-06-25T08:08:07.265Z,18.50
2018-06-25T08:10:35.857Z,18.50
2018-06-25T08:13:04.381Z,18.60
2018-06-25T08:15:32.926Z,18.70
2018-06-25T08:18:01.451Z,18.80
2018-06-25T08:20:30.044Z,18.70
2018-06-25T08:22:58.602Z,18.70
2018-06-25T08:25:27.097Z,18.70
2018-06-25T08:27:55.645Z,18.70
2018-06-25T08:30:24.173Z,18.70
2018-06-25T08:32:53.460Z,18.80
2018-06-25T08:35:22.025Z,18.80
2018-06-25T08:40:19.131Z,19.00
2018-06-25T08:42:47.909Z,19.00
2018-06-25T08:45:16.779Z,19.10
2018-06-25T08:47:45.590Z,19.20
2018-06-25T08:50:14.691Z,19.30
2018-06-25T08:52:43.185Z,19.30
2018-06-25T08:55:12.044Z,19.40
2018-06-25T08:57:40.562Z,19.40
2018-06-25T09:00:09.082Z,19.50
2018-06-25T09:02:37.818Z,19.50
2018-06-25T09:05:06.499Z,19.50
2018-06-25T09:07:34.997Z,19.50
2018-06-25T09:10:03.505Z,19.50
2018-06-25T09:12:32.126Z,19.40
2018-06-25T09:15:00.617Z,19.30
2018-06-25T09:17:29.121Z,19.30
2018-06-25T09:19:57.689Z,19.20
2018-06-25T09:22:26.215Z,19.20
2018-06-25T09:24:54.716Z,19.30
2018-06-25T09:27:23.209Z,19.30
2018-06-25T09:29:51.753Z,19.30
2018-06-25T09:32:20.258Z,19.40
2018-06-25T09:34:49.795Z,19.50
2018-06-25T09:37:19.183Z,19.50
2018-06-25T09:39:47.701Z,19.70
2018-06-25T09:42:16.234Z,19.80
2018-06-25T09:44:44.736Z,20.00
2018-06-25T09:47:13.261Z,20.10
2018-06-25T09:49:41.770Z,20.10
2018-06-25T09:52:10.297Z,20.10
2018-06-25T09:54:38.849Z,20.10
2018-06-25T09:57:07.345Z,20.20
2018-06-25T09:59:35.853Z,20.30
2018-06-25T10:02:04.381Z,20.30
2018-06-25T10:04:32.898Z,20.30
2018-06-25T10:07:01.578Z,20.30
2018-06-25T10:09:30.087Z,20.30
2018-06-25T10:11:58.649Z,20.30
2018-06-25T10:16:55.374Z,20.40
2018-06-25T10:19:23.912Z,20.40
2018-06-25T10:21:52.665Z,20.40
2018-06-25T10:26:49.342Z,20.30
2018-06-25T10:29:17.869Z,20.30
2018-06-25T10:31:46.365Z,20.40
2018-06-25T10:34:14.902Z,20.40
2018-06-25T10:36:43.457Z,20.50
2018-06-25T10:39:12.351Z,20.50
2018-06-25T10:41:40.873Z,20.60
2018-06-25T10:44:09.813Z,20.70
2018-06-25T10:46:38.345Z,20.80
2018-06-25T10:49:06.887Z,20.90
2018-06-25T10:51:35.426Z,20.80
2018-06-25T10:54:03.982Z,21.00
2018-06-25T10:56:32.513Z,21.10
2018-06-25T10:59:01.026Z,21.30
2018-06-25T11:01:29.568Z,21.40
2018-06-25T11:03:58.110Z,21.50
2018-06-25T11:06:26.636Z,21.70
2018-06-25T11:08:55.145Z,21.80
2018-06-25T11:11:24.201Z,21.80
2018-06-25T11:13:52.722Z,21.80
2018-06-25T11:16:21.237Z,21.70
2018-06-25T11:18:49.750Z,21.60
2018-06-25T11:21:18.288Z,21.50
2018-06-25T11:23:46.825Z,21.50
2018-06-25T11:26:15.373Z,21.30
2018-06-25T11:28:43.901Z,21.20
2018-06-25T11:31:12.429Z,21.00
2018-06-25T11:33:40.958Z,21.00
2018-06-25T11:36:09.477Z,20.90
2018-06-25T11:38:38.013Z,20.80
2018-06-25T11:41:06.568Z,20.70
2018-06-25T11:43:35.094Z,20.60
2018-06-25T11:46:03.605Z,20.70
2018-06-25T11:48:32.167Z,20.70
2018-06-25T11:51:00.701Z,20.60
2018-06-25T11:53:29.205Z,20.60
2018-06-25T11:55:57.721Z,20.70
2018-06-25T11:58:26.232Z,20.70
2018-06-25T12:00:54.753Z,20.70
2018-06-25T12:03:23.292Z,20.70
2018-06-25T12:05:51.778Z,20.70
2018-06-25T12:08:20.310Z,20.70
2018-06-25T12:10:48.805Z,20.70
2018-06-25T12:13:17.324Z,20.70
2018-06-25T12:15:45.829Z,20.80
2018-06-25T12:18:14.349Z,20.80
2018-06-25T12:20:42.862Z,20.90
2018-06-25T12:23:11.504Z,21.10
2018-06-25T12:25:40.003Z,21.40
2018-06-25T12:30:36.717Z,22.00
2018-06-25T12:33:05.557Z,22.40
2018-06-25T12:35:34.137Z,22.70
2018-06-25T12:38:02.770Z,22.80
2018-06-25T12:40:31.181Z,23.00
2018-06-25T12:42:59.741Z,23.30
2018-06-25T12:45:28.191Z,23.60
2018-06-25T12:47:56.705Z,24.00
2018-06-25T12:50:25.260Z,24.30
2018-06-25T12:52:53.769Z,24.40
2018-06-25T12:55:22.281Z,24.50
2018-06-25T12:57:50.785Z,24.40
2018-06-25T13:00:19.325Z,24.40
2018-06-25T13:02:47.901Z,24.40
2018-06-25T13:05:16.632Z,24.70
2018-06-25T13:07:45.161Z,24.90
2018-06-25T13:10:13.669Z,24.90
2018-06-25T13:12:42.184Z,24.90
2018-06-25T13:15:10.769Z,24.90
2018-06-25T13:17:39.301Z,24.60
2018-06-25T13:20:07.933Z,24.50
2018-06-25T13:22:36.481Z,24.40
2018-06-25T13:25:05.230Z,24.50
2018-06-25T13:27:34.373Z,24.30
2018-06-25T13:30:02.899Z,24.00
2018-06-25T13:32:31.417Z,23.80
2018-06-25T13:34:59.928Z,23.60
2018-06-25T13:37:28.437Z,23.60
2018-06-25T13:39:56.975Z,23.50
2018-06-25T13:42:25.507Z,23.40
2018-06-25T13:44:54.121Z,23.30
2018-06-25T13:47:22.642Z,23.20
2018-06-25T13:49:51.165Z,23.20
2018-06-25T13:52:19.697Z,23.10
2018-06-25T13:54:48.254Z,22.90
2018-06-25T13:57:16.761Z,22.80
2018-06-25T13:59:45.364Z,22.80
2018-06-25T14:02:13.921Z,22.70
2018-06-25T14:04:42.437Z,22.90
2018-06-25T14:07:11.003Z,23.20
2018-06-25T14:09:39.795Z,23.80
2018-06-25T14:14:36.553Z,24.80
2018-06-25T14:17:05.158Z,25.20
2018-06-25T14:19:33.677Z,25.50
2018-06-25T14:22:02.190Z,25.60
2018-06-25T14:24:36.142Z,25.80
2018-06-25T14:27:09.629Z,26.00
2018-06-25T14:29:38.616Z,26.10
2018-06-25T14:32:11.168Z,25.80
2018-06-25T14:34:40.080Z,25.60
2018-06-25T14:37:10.302Z,25.20
2018-06-25T14:39:38.817Z,24.80
2018-06-25T14:42:07.981Z,24.40
2018-06-25T14:44:36.481Z,24.20
2018-06-25T14:47:05.009Z,24.20
2018-06-25T14:49:33.526Z,24.10
2018-06-25T14:52:02.038Z,24.00
2018-06-25T14:54:30.554Z,23.80
2018-06-25T14:56:59.152Z,23.60
2018-06-25T14:59:27.674Z,23.50
2018-06-25T15:01:56.197Z,23.30
2018-06-25T15:04:24.690Z,23.20
2018-06-25T15:06:53.317Z,23.30
2018-06-25T15:09:21.834Z,23.40
2018-06-25T15:11:50.364Z,23.60
2018-06-25T15:14:18.885Z,23.80
2018-06-25T15:16:47.408Z,24.00
2018-06-25T15:19:15.981Z,24.00
2018-06-25T15:21:44.602Z,24.00
2018-06-25T15:24:13.120Z,24.10
2018-06-25T15:26:41.698Z,24.30
2018-06-25T15:29:10.204Z,24.40
2018-06-25T15:31:38.710Z,24.50
2018-06-25T15:34:07.255Z,24.80
2018-06-25T15:36:35.789Z,25.60
2018-06-25T15:41:34.738Z,26.40
2018-06-25T15:44:03.538Z,26.40
2018-06-25T15:46:32.064Z,26.50
2018-06-25T15:49:00.854Z,26.30
2018-06-25T15:51:29.445Z,25.80
2018-06-25T15:53:58.452Z,25.80
2018-06-25T15:56:27.137Z,25.70
2018-06-25T15:58:55.665Z,25.40
2018-06-25T16:01:24.214Z,25.00
2018-06-25T16:03:52.714Z,24.70
2018-06-25T16:06:21.253Z,24.50
2018-06-25T16:08:49.765Z,24.30
2018-06-25T16:11:18.289Z,24.20
2018-06-25T16:13:46.837Z,24.20
2018-06-25T16:16:15.345Z,24.10
2018-06-25T16:18:43.873Z,24.00
2018-06-25T16:21:12.401Z,23.70
2018-06-25T16:23:40.929Z,23.50
2018-06-25T16:26:09.483Z,23.40
2018-06-25T16:28:38.026Z,23.30
2018-06-25T16:31:06.592Z,23.10
2018-06-25T16:33:35.123Z,23.10
2018-06-25T16:36:03.686Z,22.90
2018-06-25T16:38:32.190Z,22.80
2018-06-25T16:41:00.755Z,22.60
2018-06-25T16:43:29.285Z,22.50
2018-06-25T16:45:57.816Z,22.30
2018-06-25T16:48:26.329Z,22.20
2018-06-25T16:50:54.821Z,22.00
2018-06-25T16:53:23.346Z,21.90
2018-06-25T16:55:51.853Z,21.60
2018-06-25T16:58:21.299Z,21.40
2018-06-25T17:00:49.770Z,21.30
2018-06-25T17:03:18.321Z,21.20
2018-06-25T17:05:46.875Z,21.10
2018-06-25T17:08:15.393Z,21.00
2018-06-25T17:10:43.990Z,20.90
2018-06-25T17:13:12.447Z,20.90
2018-06-25T17:15:40.945Z,20.70
2018-06-25T17:18:09.453Z,20.70
2018-06-25T17:20:37.961Z,20.60
2018-06-25T17:25:34.677Z,20.40
2018-06-25T17:28:03.229Z,20.30
2018-06-25T17:30:31.733Z,20.30
2018-06-25T17:33:00.241Z,20.20
2018-06-25T17:35:28.773Z,20.20
2018-06-25T17:37:57.297Z,20.10
2018-06-25T17:40:25.793Z,20.10
2018-06-25T17:42:54.301Z,20.10
2018-06-25T17:45:22.801Z,20.00
2018-06-25T17:47:51.329Z,20.00
2018-06-25T17:50:19.881Z,20.00
2018-06-25T17:52:48.385Z,20.00
2018-06-25T17:55:16.901Z,20.00
2018-06-25T17:57:45.421Z,20.00
2018-06-25T18:00:13.953Z,20.10
2018-06-25T18:02:42.533Z,20.10
2018-06-25T18:05:11.215Z,20.10
2018-06-25T18:07:39.735Z,20.20
2018-06-25T18:10:08.257Z,20.10
2018-06-25T18:12:36.769Z,20.10
2018-06-25T18:15:05.717Z,20.10
2018-06-25T18:17:34.327Z,20.10
2018-06-25T18:20:02.837Z,20.10
2018-06-25T18:22:31.350Z,20.10
2018-06-25T18:24:59.895Z,20.10
2018-06-25T18:27:28.405Z,20.00
2018-06-25T18:29:56.945Z,20.00
2018-06-25T18:32:25.644Z,20.00
2018-06-25T18:34:54.190Z,20.00
2018-06-25T18:37:22.728Z,20.00
2018-06-25T18:39:51.236Z,19.80
2018-06-25T18:42:19.757Z,19.70
2018-06-25T18:44:48.322Z,19.60
2018-06-25T18:47:16.777Z,19.50
2018-06-25T18:49:45.290Z,19.60
2018-06-25T18:52:13.817Z,19.50
2018-06-25T18:54:42.326Z,19.40
2018-06-25T18:57:10.859Z,19.40
2018-06-25T18:59:39.379Z,19.20
2018-06-25T19:02:07.969Z,19.10
2018-06-25T19:04:36.473Z,19.10
2018-06-25T19:07:05.102Z,19.10
2018-06-25T19:09:33.628Z,19.00
2018-06-25T19:12:02.172Z,19.00
2018-06-25T19:14:30.677Z,19.00
2018-06-25T19:16:59.224Z,19.00
2018-06-25T19:19:27.765Z,19.00
2018-06-25T19:21:56.286Z,19.00
2018-06-25T19:24:24.957Z,19.00
2018-06-25T19:26:53.789Z,18.90
2018-06-25T19:29:22.393Z,19.00
2018-06-25T19:31:50.966Z,18.90
2018-06-25T19:34:19.501Z,18.90
2018-06-25T19:36:48.093Z,18.80
2018-06-25T19:39:16.637Z,18.90
2018-06-25T19:41:45.145Z,18.80
2018-06-25T19:44:13.685Z,18.80
2018-06-25T19:46:42.266Z,18.80
2018-06-25T19:49:10.739Z,18.80
2018-06-25T19:51:39.253Z,18.70
2018-06-25T19:54:08.185Z,18.80
2018-06-25T19:56:36.690Z,18.70
2018-06-25T19:59:05.218Z,18.60
2018-06-25T20:01:33.905Z,18.60
2018-06-25T20:04:02.438Z,18.60
2018-06-25T20:06:30.977Z,18.60
2018-06-25T20:08:59.653Z,18.60
2018-06-25T20:11:28.231Z,18.50
2018-06-25T20:13:56.802Z,18.50
2018-06-25T20:16:25.301Z,18.40
2018-06-25T20:18:53.837Z,18.30
2018-06-25T20:21:22.373Z,18.30
2018-06-25T20:23:50.914Z,18.30
2018-06-25T20:26:19.474Z,18.20
2018-06-25T20:31:16.181Z,18.10
2018-06-25T20:33:45.078Z,18.20
2018-06-25T20:36:13.923Z,18.10
2018-06-25T20:38:42.802Z,18.00
2018-06-25T20:41:11.356Z,18.00
2018-06-25T20:43:39.930Z,17.90
2018-06-25T20:46:08.462Z,17.90
2018-06-25T20:48:37.029Z,17.90
2018-06-25T20:51:05.568Z,17.80
2018-06-25T20:53:34.130Z,17.80
2018-06-25T20:56:02.642Z,17.80
2018-06-25T20:58:31.185Z,17.70
2018-06-25T21:00:59.713Z,17.60
2018-06-25T21:03:28.424Z,17.60
2018-06-25T21:05:56.766Z,17.60
2018-06-25T21:08:25.305Z,17.50
2018-06-25T21:10:53.821Z,17.60
2018-06-25T21:13:22.341Z,17.50
2018-06-25T21:18:19.061Z,17.50
2018-06-25T21:20:47.649Z,17.50
2018-06-25T21:23:16.183Z,17.60
2018-06-25T21:25:44.721Z,17.50
2018-06-25T21:28:13.262Z,17.50
2018-06-25T21:30:41.765Z,17.50
2018-06-25T21:33:10.338Z,17.50
2018-06-25T21:35:38.909Z,17.50
2018-06-25T21:38:07.465Z,17.50
2018-06-25T21:40:36.021Z,17.40
2018-06-25T21:43:04.565Z,17.40
2018-06-25T21:45:33.093Z,17.40
2018-06-25T21:48:01.619Z,17.40
2018-06-25T21:50:30.165Z,17.50
2018-06-25T21:52:58.658Z,17.50
2018-06-25T21:55:27.236Z,17.50
2018-06-25T21:57:55.768Z,17.50
2018-06-25T22:00:26.853Z,17.60
2018-06-25T22:02:55.373Z,17.60
2018-06-25T22:05:23.897Z,17.50
2018-06-25T22:07:52.440Z,17.40
2018-06-25T22:10:20.982Z,17.40
2018-06-25T22:12:49.489Z,17.30
2018-06-25T22:15:18.005Z,17.40
2018-06-25T22:17:46.518Z,17.40
2018-06-25T22:20:15.051Z,17.50
2018-06-25T22:22:43.617Z,17.60
2018-06-25T22:25:12.096Z,17.60
2018-06-25T22:27:40.633Z,17.70
2018-06-25T22:30:09.174Z,17.70
2018-06-25T22:32:37.681Z,17.70
2018-06-25T22:35:06.243Z,17.80
2018-06-25T22:37:34.765Z,17.80
2018-06-25T22:40:03.314Z,17.80
2018-06-25T22:42:34.421Z,17.90
2018-06-25T22:47:31.130Z,17.90
2018-06-25T22:49:59.696Z,17.80
2018-06-25T22:52:28.202Z,17.80
2018-06-25T22:54:56.713Z,17.80
2018-06-25T22:57:25.241Z,17.80
2018-06-25T22:59:53.746Z,17.80
2018-06-25T23:02:22.261Z,17.70
2018-06-25T23:04:50.788Z,17.50
2018-06-25T23:07:19.314Z,17.20
2018-06-25T23:09:47.822Z,17.00
2018-06-25T23:12:16.329Z,16.90
2018-06-25T23:14:44.842Z,16.80
2018-06-25T23:17:13.354Z,16.70
2018-06-25T23:19:41.877Z,16.60
2018-06-25T23:22:10.400Z,16.50
2018-06-25T23:24:38.917Z,16.40
2018-06-25T23:27:07.641Z,16.30
2018-06-25T23:29:36.153Z,16.30
2018-06-25T23:32:04.679Z,16.30
2018-06-25T23:34:33.241Z,16.30
2018-06-25T23:37:01.742Z,16.30
2018-06-25T23:39:30.269Z,16.30
2018-06-25T23:41:58.793Z,16.30
2018-06-25T23:44:27.296Z,16.30
2018-06-25T23:46:55.835Z,16.30
2018-06-25T23:49:24.345Z,16.30
2018-06-25T23:51:52.873Z,16.30
2018-06-25T23:54:21.409Z,16.30
2018-06-25T23:56:49.932Z,16.30
2018-06-25T23:59:18.469Z,16.30
